Time;durP1;ratioP1;P1;durP2;ratioP2;P2;SDS_P1;SDS_P2;PMS_P1;PMS_P2;Temp;Humidity;BMP_temperature;BMP_pressure;BME280_temperature;BME280_humidity;BME280_pressure;Samples;Min_cycle;Max_cycle;Signal;HPM_P1;HPM_P2
2023/05/22 00:00:54;;;;;;;6.20;3.30;;;;;;;21.06;45.91;100470.98;105484;1300;67167;-89
2023/05/22 00:03:23;;;;;;;3.50;3.20;;;;;;;21.05;45.83;100473.60;105436;1302;67738;-89
2023/05/22 00:05:52;;;;;;;4.30;3.50;;;;;;;21.05;45.85;100466.95;105538;1295;75433;-89
2023/05/22 00:08:18;;;;;;;5.50;3.30;;;;;;;21.04;46.01;100464.39;105550;1296;82986;-86
2023/05/22 00:10:44;;;;;;;4.40;3.50;;;;;;;21.03;45.86;100460.61;105336;1302;67584;-90
2023/05/22 00:13:10;;;;;;;3.40;3.10;;;;;;;21.04;45.99;100459.73;105416;1301;67254;-89
2023/05/22 00:15:36;;;;;;;3.40;3.00;;;;;;;21.05;46.04;100461.98;105268;1302;67955;-89
2023/05/22 00:18:02;;;;;;;5.90;3.40;;;;;;;21.04;45.89;100461.48;105510;1302;67643;-89
2023/05/22 00:20:28;;;;;;;4.60;3.30;;;;;;;21.04;45.77;100462.20;105453;1299;67781;-89
2023/05/22 00:22:55;;;;;;;3.50;3.20;;;;;;;21.03;45.92;100461.58;105492;1302;67116;-89
2023/05/22 00:29:10;;;;;;;4.30;3.30;;;;;;;21.01;46.06;100452.16;105346;1304;67476;-89
2023/05/22 00:31:36;;;;;;;4.10;3.00;;;;;;;21.01;45.93;100450.63;105356;1305;74527;-89
2023/05/22 00:34:02;;;;;;;3.40;3.10;;;;;;;21.01;45.93;100450.16;105248;1301;68187;-89
2023/05/22 00:36:28;;;;;;;4.80;3.10;;;;;;;21.01;46.01;100447.00;105379;1301;67442;-89
2023/05/22 00:38:53;;;;;;;4.10;3.20;;;;;;;21.01;46.11;100449.59;105428;1301;67888;-89
2023/05/22 00:41:21;;;;;;;3.70;3.10;;;;;;;21.01;46.03;100446.53;105511;1297;67072;-89
2023/05/22 00:43:47;;;;;;;3.80;3.10;;;;;;;21.01;46.16;100449.45;105482;1305;66940;-89
2023/05/22 00:46:13;;;;;;;4.20;3.30;;;;;;;21.01;46.02;100450.62;105444;1301;68114;-89
2023/05/22 00:48:38;;;;;;;4.80;3.30;;;;;;;21.00;46.11;100450.83;105500;1299;67515;-89
2023/05/22 00:51:04;;;;;;;4.00;3.50;;;;;;;21.00;46.07;100448.27;105582;1301;67149;-89
2023/05/22 00:53:30;;;;;;;5.60;3.20;;;;;;;21.00;46.09;100444.48;105431;1303;73421;-89
2023/05/22 00:56:28;;;;;;;3.40;3.10;;;;;;;21.00;46.13;100444.59;105315;1301;68005;-89
2023/05/22 01:02:25;;;;;;;3.30;3.00;;;;;;;20.99;46.19;100441.48;105394;1305;67799;-89
2023/05/22 01:05:05;;;;;;;4.10;3.30;;;;;;;20.99;46.33;100439.31;105347;1304;67576;-89
2023/05/22 01:07:33;;;;;;;5.60;3.40;;;;;;;20.98;46.18;100438.96;105468;1302;74656;-89
2023/05/22 01:09:59;;;;;;;3.70;2.90;;;;;;;20.97;46.15;100442.95;105440;1301;84076;-89
2023/05/22 01:12:41;;;;;;;4.20;3.40;;;;;;;20.97;46.09;100442.85;105236;1302;68298;-89
2023/05/22 01:15:29;;;;;;;4.50;3.10;;;;;;;20.98;46.20;100440.91;105449;1302;67591;-89
2023/05/22 01:18:11;;;;;;;4.40;3.40;;;;;;;20.98;46.17;100437.94;105542;1295;67716;-89
2023/05/22 01:20:39;;;;;;;4.80;3.10;;;;;;;20.97;46.21;100433.08;105111;1303;74568;-89
2023/05/22 01:23:20;;;;;;;5.40;3.30;;;;;;;20.96;46.18;100432.41;105354;1296;82983;-89
2023/05/22 01:31:25;;;;;;;4.40;3.60;;;;;;;20.96;46.29;100432.35;105313;1304;67733;-89
2023/05/22 01:33:56;;;;;;;3.70;3.30;;;;;;;20.96;46.12;100430.68;105252;1301;67086;-89
2023/05/22 01:36:23;;;;;;;5.80;2.90;;;;;;;20.96;46.37;100434.06;105439;1301;82816;-89
2023/05/22 01:38:48;;;;;;;3.60;3.30;;;;;;;20.96;46.28;100427.55;105450;1301;72512;-89
2023/05/22 01:41:14;;;;;;;3.60;3.00;;;;;;;20.96;46.18;100425.76;105517;1296;67620;-89
2023/05/22 01:46:27;;;;;;;4.80;3.10;;;;;;;20.96;46.24;100425.71;105303;1304;73427;-89
2023/05/22 01:48:53;;;;;;;3.30;3.00;;;;;;;20.96;46.25;100426.33;105464;1302;84035;-89
2023/05/22 01:51:22;;;;;;;5.00;3.40;;;;;;;20.96;46.25;100427.88;105454;1301;67836;-89
2023/05/22 01:54:11;;;;;;;4.90;3.20;;;;;;;20.96;46.22;100423.10;105394;1298;67671;-89
2023/05/22 01:57:01;;;;;;;4.30;3.60;;;;;;;20.96;46.28;100424.18;105572;1299;67770;-89
2023/05/22 01:59:36;;;;;;;;;;;;;;;20.95;46.09;100419.42;105408;1299;74672;-89
2023/05/22 02:02:04;;;;;;;3.40;2.90;;;;;;;20.91;45.98;100419.54;105590;1296;83043;-89
2023/05/22 02:04:30;;;;;;;4.80;3.70;;;;;;;20.93;46.05;100420.16;105420;1302;75021;-89
2023/05/22 02:06:56;;;;;;;4.90;3.30;;;;;;;20.93;46.12;100427.67;105266;1302;68274;-89
2023/05/22 02:09:24;;;;;;;6.60;3.30;;;;;;;20.93;46.24;100428.45;105275;1303;67882;-89
2023/05/22 02:11:50;;;;;;;3.40;3.10;;;;;;;20.93;46.31;100427.67;105512;1301;75493;-89
2023/05/22 02:14:16;;;;;;;6.20;3.40;;;;;;;20.93;46.28;100426.55;105400;1301;67419;-88
2023/05/22 02:16:47;;;;;;;5.00;3.60;;;;;;;20.93;46.32;100429.26;105293;1296;67654;31
2023/05/22 02:19:14;;;;;;;5.60;3.40;;;;;;;20.94;46.27;100427.73;105405;1302;67079;-90
2023/05/22 02:21:40;;;;;;;4.00;3.10;;;;;;;20.93;46.31;100424.45;105441;1301;67215;-89
2023/05/22 02:24:06;;;;;;;6.00;3.40;;;;;;;20.93;46.18;100426.13;105448;1302;68050;-89
2023/05/22 02:26:31;;;;;;;4.80;3.90;;;;;;;20.93;46.07;100424.04;105400;1301;67505;-89
2023/05/22 02:28:57;;;;;;;3.80;3.40;;;;;;;20.93;46.27;100425.17;105513;1302;67226;-89
2023/05/22 02:31:23;;;;;;;4.10;3.40;;;;;;;20.93;46.29;100420.92;105233;1302;67825;-89
2023/05/22 02:33:51;;;;;;;6.20;4.00;;;;;;;20.94;46.13;100424.23;105593;1300;67638;-89
2023/05/22 02:36:17;;;;;;;5.60;3.80;;;;;;;20.94;46.24;100421.95;105535;1299;82966;-89
2023/05/22 02:38:43;;;;;;;6.10;3.60;;;;;;;20.93;46.32;100421.79;105502;1302;73563;-89
2023/05/22 02:41:09;;;;;;;5.60;3.70;;;;;;;20.93;46.17;100422.97;105438;1302;67926;-89
2023/05/22 02:43:42;;;;;;;4.70;3.70;;;;;;;20.93;46.18;100428.13;105351;1302;67979;31
2023/05/22 02:46:08;;;;;;;7.00;3.80;;;;;;;20.93;46.28;100427.27;105462;1302;75345;-89
2023/05/22 02:48:33;;;;;;;4.90;3.70;;;;;;;20.92;46.33;100428.44;105584;1301;67131;-89
2023/05/22 02:50:59;;;;;;;9.10;3.80;;;;;;;20.92;46.35;100430.13;105593;1301;67664;-89
2023/05/22 02:53:25;;;;;;;4.80;3.40;;;;;;;20.93;46.28;100428.18;105575;1299;67024;-89
2023/05/22 02:55:51;;;;;;;8.50;3.80;;;;;;;20.92;46.33;100425.77;105482;1296;67126;-89
2023/05/22 02:58:17;;;;;;;8.50;3.70;;;;;;;20.92;46.31;100434.21;105465;1302;67669;-88
2023/05/22 03:00:44;;;;;;;5.70;3.60;;;;;;;20.92;46.26;100433.65;105364;1302;67897;-89
2023/05/22 03:03:10;;;;;;;6.80;3.30;;;;;;;20.92;46.40;100430.69;105265;1302;67604;-89
2023/05/22 03:05:40;;;;;;;4.50;3.50;;;;;;;20.93;46.29;100428.90;105418;1301;68248;-88
2023/05/22 03:08:07;;;;;;;5.40;3.50;;;;;;;20.93;46.41;100433.40;105592;1298;74699;-89
2023/05/22 03:10:42;;;;;;;4.30;2.90;;;;;;;20.93;46.29;100429.81;105547;1296;83794;31
2023/05/22 03:13:08;;;;;;;3.50;3.00;;;;;;;20.94;46.09;100426.74;105497;1302;71827;-89
2023/05/22 03:15:42;;;;;;;4.00;3.40;;;;;;;20.94;46.24;100427.72;105518;1302;66901;-89
2023/05/22 03:18:10;;;;;;;4.80;3.30;;;;;;;20.93;46.13;100427.92;105466;1302;67611;-89
2023/05/22 03:20:51;;;;;;;5.00;3.90;;;;;;;20.92;46.06;100424.77;105416;1302;73603;-89
2023/05/22 03:23:34;;;;;;;6.70;4.20;;;;;;;20.90;46.12;100424.50;105413;1302;83441;-90
2023/05/22 03:26:37;;;;;;;6.60;4.30;;;;;;;20.87;46.38;100420.35;105524;1295;71708;-89
2023/05/22 03:31:56;;;;;;;6.50;4.30;;;;;;;20.82;46.50;100429.45;105601;1301;66909;-88
2023/05/22 03:34:54;;;;;;;5.50;4.10;;;;;;;20.80;46.68;100427.98;105478;1303;74493;-88
2023/05/22 03:40:06;;;;;;;6.40;4.30;;;;;;;20.77;46.74;100430.52;82758;1324;71178;-87
2023/05/22 03:42:32;;;;;;;4.60;4.10;;;;;;;20.79;46.85;100430.53;105276;1301;67879;-88
2023/05/22 03:44:58;;;;;;;10.10;8.40;;;;;;;20.80;46.83;100427.42;105463;1301;67164;-88
2023/05/22 03:47:23;;;;;;;20.40;16.60;;;;;;;20.81;46.96;100429.66;105469;1301;67054;-87
2023/05/22 03:49:49;;;;;;;17.60;11.40;;;;;;;20.81;47.04;100430.54;105510;1298;67748;-86
2023/05/22 03:54:43;;;;;;;11.50;9.00;;;;;;;20.82;47.03;100428.48;105554;1302;67716;-87
2023/05/22 03:57:09;;;;;;;13.60;10.50;;;;;;;20.83;47.18;100433.55;105447;1301;67251;-87
2023/05/22 03:59:34;;;;;;;15.10;11.60;;;;;;;20.83;47.31;100430.02;105563;1301;67575;-87
2023/05/22 04:02:00;;;;;;;13.10;10.20;;;;;;;20.84;47.19;100429.36;105512;1299;67695;-86
2023/05/22 04:04:27;;;;;;;12.20;10.20;;;;;;;20.84;47.15;100431.91;105479;1302;67748;-86
2023/05/22 04:06:52;;;;;;;12.30;10.90;;;;;;;20.85;47.15;100428.94;105331;1302;74526;-85
2023/05/22 04:09:18;;;;;;;12.80;10.90;;;;;;;20.85;47.17;100433.48;105531;1302;67630;-85
2023/05/22 04:11:45;;;;;;;11.70;10.00;;;;;;;20.86;47.07;100430.64;105475;1302;67568;-86
2023/05/22 04:14:10;;;;;;;10.20;9.10;;;;;;;20.87;47.14;100434.11;105455;1302;66984;-85
2023/05/22 04:16:36;;;;;;;11.70;9.60;;;;;;;20.88;47.06;100428.33;105361;1305;67797;-86
2023/05/22 04:19:02;;;;;;;10.60;9.10;;;;;;;20.90;47.11;100433.25;105491;1301;66894;-86
2023/05/22 04:21:29;;;;;;;13.30;8.80;;;;;;;20.90;46.97;100433.90;105462;1302;72565;-87
2023/05/22 04:23:54;;;;;;;11.70;8.90;;;;;;;20.91;46.97;100435.55;105529;1301;67771;-86
2023/05/22 04:26:20;;;;;;;10.00;8.50;;;;;;;20.92;46.87;100434.94;105515;1302;67655;-86
2023/05/22 04:28:46;;;;;;;8.30;7.40;;;;;;;20.92;46.87;100431.81;105438;1302;67709;-86
2023/05/22 04:31:21;;;;;;;9.60;7.50;;;;;;;20.93;46.86;100434.46;105330;1305;67721;-91
2023/05/22 04:33:48;;;;;;;10.40;7.60;;;;;;;20.94;46.87;100430.16;105344;1304;72501;-86
2023/05/22 04:36:14;;;;;;;8.20;7.40;;;;;;;20.94;46.93;100433.75;105242;1305;67782;-86
2023/05/22 04:38:40;;;;;;;8.80;6.30;;;;;;;20.95;46.67;100434.66;105276;1306;67643;-86
2023/05/22 04:41:07;;;;;;;7.70;6.80;;;;;;;20.96;46.84;100438.09;105369;1304;66956;-86
2023/05/22 04:43:38;;;;;;;9.10;6.40;;;;;;;20.96;46.94;100437.73;105464;1302;67739;-88
2023/05/22 04:48:47;;;;;;;8.30;6.40;;;;;;;20.97;46.72;100436.86;95697;1302;67651;-88
2023/05/22 04:51:33;;;;;;;7.50;6.10;;;;;;;20.98;46.85;100437.42;105395;1302;67143;-88
2023/05/22 04:54:07;;;;;;;10.40;6.10;;;;;;;20.98;46.67;100440.03;105585;1301;74522;-89
2023/05/22 04:56:33;;;;;;;8.00;5.60;;;;;;;20.98;46.73;100444.08;105507;1301;83367;-88
2023/05/22 04:59:07;;;;;;;8.50;6.00;;;;;;;20.98;46.88;100439.58;105557;1298;67060;-88
2023/05/22 05:01:33;;;;;;;11.70;5.90;;;;;;;20.98;46.87;100438.14;105341;1298;67913;-88
2023/05/22 05:06:30;;;;;;;11.10;5.80;;;;;;;20.99;46.64;100442.19;105534;1302;73730;-88
2023/05/22 05:08:56;;;;;;;10.40;5.30;;;;;;;21.00;46.69;100437.79;105372;1299;83045;-89
2023/05/22 05:11:49;;;;;;;7.60;5.50;;;;;;;20.99;46.67;100440.50;105396;1299;67203;-87
2023/05/22 05:17:01;;;;;;;10.80;5.60;;;;;;;20.99;46.68;100438.35;105365;1305;68378;-88
2023/05/22 05:19:26;;;;;;;11.00;5.80;;;;;;;20.98;46.59;100441.27;105103;1304;67339;-88
2023/05/22 05:24:39;;;;;;;13.70;7.70;;;;;;;20.98;46.43;100443.05;105177;1305;72705;-88
2023/05/22 05:27:05;;;;;;;9.60;6.80;;;;;;;20.98;46.36;100442.02;105156;1303;67239;-87
2023/05/22 05:29:31;;;;;;;10.80;7.00;;;;;;;20.98;46.55;100448.02;105304;1303;67844;-87
2023/05/22 05:31:57;;;;;;;13.80;7.10;;;;;;;20.99;46.37;100447.97;105339;1304;67585;-85
2023/05/22 05:34:26;;;;;;;9.40;6.00;;;;;;;20.99;46.44;100447.86;105349;1301;67306;-86
2023/05/22 05:39:20;;;;;;;8.50;5.80;;;;;;;20.99;46.30;100446.73;105409;1301;67419;-87
2023/05/22 05:41:51;;;;;;;12.40;6.40;;;;;;;21.00;46.32;100451.19;105487;1302;66915;-88
2023/05/22 05:44:17;;;;;;;10.50;6.10;;;;;;;21.00;46.25;100450.11;105460;1301;74637;-88
2023/05/22 05:46:45;;;;;;;10.60;6.10;;;;;;;21.01;46.25;100452.26;105287;1303;67775;-86
2023/05/22 05:49:10;;;;;;;13.60;6.90;;;;;;;21.02;46.04;100454.05;105297;1304;71889;-88
2023/05/22 05:51:38;;;;;;;14.50;6.60;;;;;;;21.02;46.14;100453.75;105408;1304;67118;-89
2023/05/22 05:54:14;;;;;;;18.80;7.10;;;;;;;21.03;46.19;100454.27;105314;1304;67915;-89
2023/05/22 06:33:49;;;;;;;;;;;;;;;21.14;45.46;100472.58;105684;1301;73035;-90
2023/05/22 06:46:49;;;;;;;17.20;14.10;;;;;;;21.12;45.36;100471.14;93495;1302;80145;-88
2023/05/22 06:49:25;;;;;;;18.60;13.60;;;;;;;21.13;45.29;100467.30;105509;1302;67082;-88
2023/05/22 06:51:50;;;;;;;20.50;13.90;;;;;;;21.14;45.23;100467.30;105469;1302;67975;-88
2023/05/22 06:54:20;;;;;;;16.80;12.60;;;;;;;21.14;45.26;100470.16;105499;1303;67706;-88
2023/05/22 06:56:46;;;;;;;24.00;13.60;;;;;;;21.15;45.21;100469.66;105470;1302;75912;-88
2023/05/22 06:59:12;;;;;;;18.30;12.70;;;;;;;21.15;45.03;100470.58;105557;1302;68387;-88
2023/05/22 07:01:38;;;;;;;20.40;11.70;;;;;;;21.16;45.07;100468.48;105378;1303;68297;-88
2023/05/22 07:04:04;;;;;;;21.50;13.70;;;;;;;21.16;44.92;100471.19;105273;1303;68618;-89
2023/05/22 07:06:37;;;;;;;14.90;11.70;;;;;;;21.16;44.82;100471.09;105404;1307;68046;-88
2023/05/22 07:09:06;;;;;;;16.40;11.40;;;;;;;21.18;44.85;100470.58;105239;1303;74574;-89
2023/05/22 07:11:34;;;;;;;16.40;11.00;;;;;;;21.18;44.81;100472.93;105263;1303;82955;-90
2023/05/22 07:14:06;;;;;;;16.10;10.70;;;;;;;21.19;44.93;100473.73;105361;1303;72222;-90
2023/05/22 07:19:28;;;;;;;9.60;7.90;;;;;;;21.20;44.65;100469.38;105488;1302;67822;-89
2023/05/22 07:21:58;;;;;;;11.50;7.60;;;;;;;21.20;44.64;100460.33;105241;1306;74337;-89
2023/05/22 07:27:11;;;;;;;13.80;7.70;;;;;;;21.21;44.50;100463.66;105299;1305;73329;-88
2023/05/22 07:29:40;;;;;;;15.30;9.50;;;;;;;21.20;44.36;100463.35;105360;1305;68831;-89
2023/05/22 07:32:07;;;;;;;12.50;10.10;;;;;;;21.21;44.30;100463.81;105304;1305;67916;-89
2023/05/22 07:37:51;;;;;;;18.30;11.60;;;;;;;21.21;44.20;100469.48;105375;1301;81342;-89
2023/05/22 07:40:25;;;;;;;19.60;11.30;;;;;;;21.21;44.33;100468.88;105449;1302;73432;-89
2023/05/22 07:46:12;;;;;;;18.00;10.80;;;;;;;21.21;44.07;100474.71;105518;1302;67193;-87
2023/05/22 07:49:02;;;;;;;15.50;10.60;;;;;;;21.21;44.11;100467.44;105479;1296;74312;-87
2023/05/22 08:07:38;;;;;;;19.40;8.90;;;;;;;21.25;44.07;100467.55;99811;1302;81654;-89
2023/05/22 08:13:28;;;;;;;13.00;8.20;;;;;;;21.27;44.03;100470.41;105477;1303;67143;-89
2023/05/22 08:19:35;;;;;;;11.70;8.00;;;;;;;21.28;44.23;100474.45;105503;1298;73444;-89
2023/05/22 08:22:31;;;;;;;10.80;7.70;;;;;;;21.28;44.08;100476.34;105468;1302;83204;-88
2023/05/22 08:31:51;;;;;;;;;;;;;;;;;;;;;
2023/05/22 08:35:07;;;;;;;8.90;6.80;;;;;;;21.30;43.97;100478.04;105502;1302;73176;-89
2023/05/22 08:37:48;;;;;;;9.50;6.00;;;;;;;21.29;43.98;100474.34;105382;1302;84700;-88
2023/05/22 08:40:32;;;;;;;8.10;5.60;;;;;;;21.30;43.99;100471.64;105121;1301;69135;-89
2023/05/22 08:43:32;;;;;;;8.20;5.90;;;;;;;21.32;43.89;100469.98;105381;1302;67296;-89
2023/05/22 08:47:08;;;;;;;10.50;6.50;;;;;;;21.32;43.87;100480.73;105342;1303;67733;-90
2023/05/22 08:55:50;;;;;;;7.40;5.40;;;;;;;21.37;44.09;100474.55;84018;1320;71470;-89
2023/05/22 08:58:39;;;;;;;9.70;5.60;;;;;;;21.37;43.96;100470.60;96393;1301;68523;-87
2023/05/22 09:01:07;;;;;;;10.40;5.60;;;;;;;21.38;44.09;100466.91;105251;1305;67536;-87
2023/05/22 09:03:33;;;;;;;9.60;5.80;;;;;;;21.38;43.98;100467.88;105277;1305;75347;-86
2023/05/22 09:06:00;;;;;;;10.00;6.20;;;;;;;21.38;43.78;100463.43;105078;1304;67270;-88
2023/05/22 09:08:26;;;;;;;10.50;6.20;;;;;;;21.40;44.33;100468.95;105197;1305;67854;-88
2023/05/22 09:10:53;;;;;;;9.90;5.90;;;;;;;21.43;44.49;100465.01;105310;1302;67683;-88
2023/05/22 09:13:27;;;;;;;10.30;5.80;;;;;;;21.43;44.62;100461.98;105301;1305;67932;-87
2023/05/22 09:16:10;;;;;;;9.60;6.50;;;;;;;21.45;44.58;100461.31;105240;1304;74285;-86
2023/05/22 09:18:36;;;;;;;9.00;5.80;;;;;;;21.45;44.48;100454.04;105112;1303;83280;-87
2023/05/22 09:23:35;;;;;;;12.40;6.20;;;;;;;21.45;44.43;100452.87;105491;1302;67569;-88
2023/05/22 09:26:01;;;;;;;10.60;5.80;;;;;;;21.44;44.47;100456.30;105438;1298;67633;-89
2023/05/22 09:28:28;;;;;;;12.00;5.90;;;;;;;21.44;44.39;100459.56;105214;1302;67646;-87
2023/05/22 09:30:54;;;;;;;8.10;5.60;;;;;;;21.44;44.47;100455.63;105136;1304;67334;-87
2023/05/22 09:33:21;;;;;;;7.90;5.70;;;;;;;21.44;44.17;100450.87;105387;1296;69026;-88
2023/05/22 09:35:47;;;;;;;7.40;5.90;;;;;;;21.44;44.19;100450.98;105252;1305;68636;-88
2023/05/22 09:38:13;;;;;;;11.60;5.70;;;;;;;21.44;44.09;100446.61;105196;1305;67093;-88
2023/05/22 09:40:39;;;;;;;7.80;6.40;;;;;;;21.44;44.09;100445.80;105333;1304;67591;-88
2023/05/22 09:43:09;;;;;;;8.90;6.60;;;;;;;21.46;44.37;100438.42;105172;1304;67596;-88
2023/05/22 09:45:35;;;;;;;10.60;6.80;;;;;;;21.48;44.71;100437.95;105275;1305;72515;-88
2023/05/22 09:48:11;;;;;;;10.60;7.00;;;;;;;21.52;44.84;100434.89;105272;1305;68312;-91
2023/05/22 09:50:38;;;;;;;9.50;7.20;;;;;;;21.54;44.99;100434.67;105383;1305;67681;-88
2023/05/22 09:53:04;;;;;;;10.90;7.30;;;;;;;21.56;44.92;100429.65;105300;1305;74405;-87
2023/05/22 09:55:30;;;;;;;10.60;7.10;;;;;;;21.56;44.92;100432.41;105184;1304;68367;-88
2023/05/22 09:57:57;;;;;;;13.00;9.90;;;;;;;21.57;44.96;100435.07;104809;1306;67831;-88
2023/05/22 10:00:25;;;;;;;11.80;9.60;;;;;;;21.58;45.12;100428.30;105007;1299;67908;-87
2023/05/22 10:03:14;;;;;;;17.90;11.90;;;;;;;21.60;45.04;100422.98;105278;1302;67654;-88
2023/05/22 10:05:45;;;;;;;20.60;11.90;;;;;;;21.61;45.20;100429.30;105494;1302;75386;-88
2023/05/22 10:11:00;;;;;;;15.30;11.80;;;;;;;21.62;44.93;100425.98;105292;1305;71625;-90
2023/05/22 10:13:28;;;;;;;20.70;12.40;;;;;;;21.62;44.72;100432.73;105379;1301;67502;-89
2023/05/22 10:15:54;;;;;;;17.10;11.60;;;;;;;21.61;44.83;100425.92;105224;1305;67286;-89
2023/05/22 10:18:20;;;;;;;20.70;15.30;;;;;;;21.65;45.05;100425.30;105117;1299;67587;-89
2023/05/22 10:26:07;;;;;;;16.50;12.60;;;;;;;21.67;44.91;100414.53;105418;1300;68409;-90
2023/05/22 10:28:42;;;;;;;;;;;;;;;21.67;44.85;100414.84;105183;1302;67911;-89
2023/05/22 10:31:21;;;;;;;14.00;11.20;;;;;;;21.64;45.00;100410.00;105276;1301;74521;-88
2023/05/22 10:39:50;;;;;;;15.90;10.60;;;;;;;21.67;44.90;100405.83;105548;1302;67114;-89
2023/05/22 10:46:02;;;;;;;11.00;7.20;;;;;;;21.66;44.49;100401.02;89958;1302;73366;-90
2023/05/22 10:52:28;;;;;;;12.90;6.90;;;;;;;21.65;44.20;100393.55;105586;1302;72352;-90
2023/05/22 11:32:18;;;;;;;28.00;20.90;;;;;;;21.65;43.54;100374.36;105404;1304;65610;-90
2023/05/22 11:45:08;;;;;;;14.00;7.90;;;;;;;21.71;43.10;100363.41;82934;1304;65951;-90
2023/05/22 11:54:36;;;;;;;16.20;7.80;;;;;;;21.71;43.04;100350.15;105515;1302;80815;-89
2023/05/22 12:03:17;;;;;;;11.40;8.40;;;;;;;21.75;43.32;100341.17;98581;1299;68134;-88
2023/05/22 12:10:13;;;;;;;31.20;26.60;;;;;;;21.74;43.48;100331.49;105534;1302;81986;-90
2023/05/22 12:20:06;;;;;;;32.50;26.90;;;;;;;21.74;43.50;100319.30;99587;1304;67099;-89
2023/05/22 13:21:09;;;;;;;11.60;7.80;;;;;;;21.81;42.56;100306.66;86950;1299;66141;-89
2023/05/22 13:24:02;;;;;;;13.00;7.20;;;;;;;21.81;42.45;100305.45;89062;1304;67404;-88
2023/05/22 13:26:28;;;;;;;8.40;6.10;;;;;;;21.82;42.15;100303.48;105431;1296;74433;-89
2023/05/22 13:28:54;;;;;;;8.50;6.10;;;;;;;21.80;42.02;100304.21;105331;1304;68067;-88
2023/05/22 13:31:20;;;;;;;6.60;5.60;;;;;;;21.82;41.88;100303.44;105479;1302;69288;-89
2023/05/22 13:33:49;;;;;;;7.90;6.10;;;;;;;21.83;41.62;100300.70;105227;1302;67854;-86
2023/05/22 13:36:15;;;;;;;7.40;5.20;;;;;;;21.83;41.50;100292.93;105471;1296;67150;-89
2023/05/22 13:38:41;;;;;;;6.40;5.60;;;;;;;21.83;41.52;100297.74;105363;1305;67271;-87
2023/05/22 13:43:37;;;;;;;8.10;5.20;;;;;;;21.83;41.31;100291.85;105490;1305;72125;-88
2023/05/22 13:46:06;;;;;;;7.90;5.30;;;;;;;21.83;41.17;100291.86;105119;1305;68136;-88
2023/05/22 13:48:32;;;;;;;6.80;5.30;;;;;;;21.84;41.16;100299.70;105363;1303;68184;-88
2023/05/22 13:51:01;;;;;;;7.50;5.10;;;;;;;21.84;41.24;100294.92;105506;1302;67850;-87
2023/05/22 13:53:32;;;;;;;8.30;5.30;;;;;;;21.84;41.04;100293.95;104989;1297;560638;-92
2023/05/22 13:55:57;;;;;;;10.00;5.40;;;;;;;21.84;41.30;100294.41;105565;1304;73156;-88
2023/05/22 13:58:23;;;;;;;5.30;4.50;;;;;;;21.86;41.28;100290.91;104739;1301;550133;-88
2023/05/22 14:00:49;;;;;;;6.50;5.30;;;;;;;21.87;41.33;100293.16;105427;1301;67837;-87
2023/05/22 14:03:16;;;;;;;7.00;5.00;;;;;;;21.88;41.17;100294.66;105108;1303;67279;-88
2023/05/22 14:05:46;;;;;;;11.10;5.30;;;;;;;21.88;41.10;100295.27;105253;1301;67578;-88
2023/05/22 14:08:55;;;;;;;7.50;5.20;;;;;;;21.88;41.23;100294.23;104993;1299;72666;31
2023/05/22 14:11:34;;;;;;;8.60;5.50;;;;;;;21.87;41.02;100292.34;105319;1296;67226;-89
2023/05/22 14:16:29;;;;;;;6.20;5.40;;;;;;;21.88;41.08;100281.22;105383;1301;73502;-88
2023/05/22 14:18:55;;;;;;;9.30;5.80;;;;;;;21.89;41.12;100283.39;105355;1302;67238;-88
2023/05/22 14:21:26;;;;;;;7.10;5.20;;;;;;;21.89;41.02;100287.88;105385;1298;67307;-88
2023/05/22 14:23:51;;;;;;;9.70;5.40;;;;;;;21.89;41.22;100284.50;105192;1302;67649;-88
2023/05/22 14:26:21;;;;;;;6.80;4.40;;;;;;;21.89;41.23;100288.69;105271;1304;67644;-87
2023/05/22 14:28:46;;;;;;;8.00;4.80;;;;;;;21.90;41.14;100282.09;105484;1304;77750;-87
2023/05/22 14:31:16;;;;;;;6.70;4.60;;;;;;;21.90;41.03;100274.65;105301;1302;67606;-87
2023/05/22 14:33:45;;;;;;;10.20;5.20;;;;;;;21.90;40.82;100271.58;105168;1304;72516;-87
2023/05/22 14:36:11;;;;;;;6.00;4.30;;;;;;;21.91;40.71;100267.58;105280;1302;67228;-87
2023/05/22 14:38:40;;;;;;;6.20;5.20;;;;;;;21.91;40.69;100267.77;105241;1302;67998;-87
2023/05/22 14:41:21;;;;;;;5.90;5.30;;;;;;;21.91;40.56;100262.39;105265;1296;74374;-88
2023/05/22 14:46:23;;;;;;;6.40;4.80;;;;;;;21.91;40.47;100261.27;105330;1301;71834;-88
2023/05/22 14:48:52;;;;;;;7.70;4.60;;;;;;;21.91;40.42;100256.55;105339;1302;67089;-88
2023/05/22 14:51:23;;;;;;;6.00;4.10;;;;;;;21.92;40.53;100255.59;105435;1303;67764;-88
2023/05/22 14:53:48;;;;;;;6.20;4.50;;;;;;;21.94;40.42;100255.20;105382;1304;74748;-89
2023/05/22 14:56:38;;;;;;;6.10;4.40;;;;;;;21.95;40.36;100258.48;105481;1302;67118;-87
2023/05/22 14:59:11;;;;;;;6.50;4.20;;;;;;;21.97;40.16;100255.02;105587;1296;72273;-88
2023/05/22 15:01:37;;;;;;;8.60;4.40;;;;;;;21.99;40.17;100253.95;105470;1302;67786;-87
2023/05/22 15:04:03;;;;;;;7.20;4.30;;;;;;;22.01;40.17;100257.27;105316;1302;67818;-88
2023/05/22 15:06:38;;;;;;;7.20;5.00;;;;;;;22.02;40.22;100257.91;105454;1302;67952;-88
2023/05/22 15:09:04;;;;;;;6.20;4.50;;;;;;;22.04;40.17;100258.46;105409;1298;83309;-88
2023/05/22 15:11:36;;;;;;;6.10;4.20;;;;;;;22.06;40.24;100256.30;105446;1300;72593;-88
2023/05/22 15:14:04;;;;;;;7.40;4.60;;;;;;;22.09;40.20;100251.66;105115;1296;67866;-87
2023/05/22 15:19:18;;;;;;;6.50;4.20;;;;;;;22.13;40.23;100252.61;105372;1300;75322;-89
2023/05/22 15:21:46;;;;;;;6.30;4.20;;;;;;;22.14;40.24;100255.05;105367;1300;67458;-87
2023/05/22 15:24:16;;;;;;;5.10;4.20;;;;;;;22.16;40.38;100252.69;105215;1303;72385;-88
2023/05/22 15:26:56;;;;;;;10.50;4.90;;;;;;;22.17;40.40;100246.05;105220;1303;67913;-91
2023/05/22 15:29:43;;;;;;;8.30;4.80;;;;;;;22.18;40.41;100245.33;104544;1304;69596;-88
2023/05/22 15:32:38;;;;;;;8.80;4.70;;;;;;;22.18;40.40;100239.23;105263;1299;73447;-88
2023/05/22 15:35:23;;;;;;;5.50;4.70;;;;;;;22.19;40.45;100239.16;105054;1301;81941;-88
2023/05/22 15:37:54;;;;;;;5.30;4.40;;;;;;;22.19;40.44;100242.60;105399;1302;67848;31
2023/05/22 15:40:21;;;;;;;8.20;5.00;;;;;;;22.18;40.35;100240.15;105380;1303;67822;-88
2023/05/22 15:42:47;;;;;;;8.40;5.30;;;;;;;22.17;40.42;100238.16;105393;1302;67040;-89
2023/05/22 15:48:05;;;;;;;5.90;5.30;;;;;;;22.14;40.35;100240.23;105470;1302;84071;-88
2023/05/22 15:50:32;;;;;;;7.50;5.80;;;;;;;22.13;40.31;100235.59;105169;1300;73368;-89
2023/05/22 15:52:59;;;;;;;7.00;5.10;;;;;;;22.11;40.39;100237.09;105147;1299;67902;-88
2023/05/22 15:55:25;;;;;;;8.80;5.50;;;;;;;22.10;40.18;100232.13;105170;1305;68049;-88
2023/05/22 15:57:56;;;;;;;8.00;5.70;;;;;;;22.08;40.33;100233.52;105173;1303;66359;-88
2023/05/22 16:00:22;;;;;;;7.80;5.30;;;;;;;22.08;40.14;100241.79;105246;1302;84280;-87
2023/05/22 16:02:48;;;;;;;7.40;5.90;;;;;;;22.06;40.30;100233.59;105446;1301;67674;-89
2023/05/22 16:05:19;;;;;;;10.10;6.20;;;;;;;22.06;40.30;100231.70;105043;1302;67773;-88
2023/05/22 18:17:49;;;;;;;13.80;11.60;;;;;;;21.88;40.48;100321.99;84419;1304;65921;-90
2023/05/22 18:30:39;;;;;;;16.50;14.50;;;;;;;21.83;40.61;100325.91;92476;1301;67145;-88
2023/05/22 18:51:51;;;;;;;15.40;13.80;;;;;;;21.87;40.46;100368.77;89594;1307;73427;-89
2023/05/22 19:01:16;;;;;;;16.40;14.20;;;;;;;21.86;40.48;100376.19;82980;1305;65791;-89
2023/05/22 19:24:27;;;;;;;15.90;13.70;;;;;;;21.82;40.55;100388.09;86750;1305;73216;-90
2023/05/22 19:31:24;;;;;;;14.10;12.70;;;;;;;21.83;40.61;100387.27;82950;1329;71448;-89
2023/05/22 19:58:18;;;;;;;14.80;11.60;;;;;;;21.82;40.58;100398.80;83094;1330;73441;-89
2023/05/22 20:05:18;;;;;;;15.20;11.30;;;;;;;21.81;40.58;100404.75;88396;1299;71445;-88
2023/05/22 20:11:41;;;;;;;11.00;9.80;;;;;;;21.82;40.59;100408.32;84430;1305;66180;-88
2023/05/22 20:49:40;;;;;;;11.50;8.30;;;;;;;21.80;40.70;100420.79;104132;1305;80157;-89
2023/05/22 20:59:37;;;;;;;;;;;;;;;21.79;40.78;100424.89;84552;1305;65914;-89